Terminal Aerodrome Forecast
Issued by NWS Goodland, KS

Home | Current Version | Previous Version | Text Only | Print | Product List | Glossary On
Versions: 1 2 3 4 5 6 7 8 9 10 11 12 13 14 15 16 17 18 19 20 21 22 23
000
FTUS43 KGLD 290535
TAFGLD
TAF
KGLD 290535Z 2906/3006 26007KT P6SM SCT110 BKN200
     FM290800 36012KT P6SM SCT007 SCT250
     FM291600 35013KT P6SM SCT020 SCT250
     FM291800 34013G19KT P6SM VCTS SCT040CB SCT110
     FM292000 34012G17KT 6SM -TSRA BKN040CB
     FM300300 03012KT 6SM -SHRA BR OVC025=

USA.gov is the U.S. government's official web portal to all federal, state and local government web resources and services.